Time;durP1;ratioP1;P1;durP2;ratioP2;P2;SDS_P1;SDS_P2;PMS_P1;PMS_P2;Temp;Humidity;BMP_temperature;BMP_pressure;BME280_temperature;BME280_humidity;BME280_pressure;Samples;Min_cycle;Max_cycle;Signal;HPM_P1;HPM_P2
2023/05/02 00:00:48;;;;;;;22.80;8.80;;;;;;;18.86;27.00;100850.16;108084;1253;72561;-66
2023/05/02 00:03:16;;;;;;;18.20;8.70;;;;;;;18.66;27.19;100850.96;107987;1256;75080;-66
2023/05/02 00:05:43;;;;;;;20.40;9.00;;;;;;;18.56;27.39;100855.48;108253;1254;61274;-67
2023/05/02 00:08:10;;;;;;;21.00;8.40;;;;;;;18.53;27.29;100855.48;108243;1254;62148;-66
2023/05/02 00:10:37;;;;;;;21.40;9.20;;;;;;;18.33;27.34;100859.13;108238;1254;75395;-65
2023/05/02 00:13:04;;;;;;;16.40;7.20;;;;;;;18.41;27.33;100862.55;108266;1254;71092;-66
2023/05/02 00:15:31;;;;;;;22.10;9.30;;;;;;;18.22;27.52;100864.88;108172;1256;72233;-63
2023/05/02 00:17:59;;;;;;;20.90;8.60;;;;;;;18.09;27.58;100864.02;108199;1256;61871;-65
2023/05/02 00:20:26;;;;;;;19.70;8.40;;;;;;;17.99;27.58;100864.77;108223;1254;61227;-64
2023/05/02 00:22:55;;;;;;;20.00;7.90;;;;;;;18.02;27.36;100864.95;108167;1253;73684;-66
2023/05/02 00:25:22;;;;;;;17.60;7.80;;;;;;;18.01;27.35;100868.21;108200;1254;72667;-66
2023/05/02 00:27:49;;;;;;;21.30;8.50;;;;;;;18.24;27.37;100871.20;108203;1254;75761;-65
2023/05/02 00:30:17;;;;;;;21.40;9.20;;;;;;;17.99;27.42;100877.77;108205;1254;63511;-67
2023/05/02 00:32:44;;;;;;;18.90;8.00;;;;;;;17.97;27.41;100881.58;108086;1253;62301;-63
2023/05/02 00:35:11;;;;;;;24.10;9.40;;;;;;;17.97;27.40;100879.28;108070;1254;71610;-64
2023/05/02 00:37:38;;;;;;;22.80;9.40;;;;;;;17.98;27.47;100883.12;108062;1254;72799;-60
2023/05/02 00:40:06;;;;;;;17.60;8.80;;;;;;;17.98;27.53;100886.51;108071;1254;71726;-60
2023/05/02 00:42:35;;;;;;;26.00;8.80;;;;;;;17.97;27.63;100889.05;108040;1254;60439;-65
2023/05/02 00:45:05;;;;;;;21.50;8.10;;;;;;;17.98;27.46;100891.86;108190;1254;62447;-63
2023/05/02 00:47:32;;;;;;;20.30;8.80;;;;;;;17.97;27.56;100889.94;108226;1254;75785;-64
2023/05/02 00:50:00;;;;;;;22.40;8.20;;;;;;;17.88;27.63;100897.03;108173;1254;72396;-63
2023/05/02 00:52:27;;;;;;;19.10;7.70;;;;;;;17.73;27.80;100899.58;108102;1253;73191;-65
2023/05/02 00:54:54;;;;;;;19.70;8.40;;;;;;;17.85;27.69;100898.63;108226;1256;60975;-64
2023/05/02 00:57:21;;;;;;;18.10;7.70;;;;;;;17.90;27.72;100898.54;108338;1254;62001;-62
2023/05/02 00:59:49;;;;;;;18.90;8.40;;;;;;;18.04;27.62;100900.77;108318;1256;76040;-62
2023/05/02 01:02:31;;;;;;;17.40;7.60;;;;;;;18.03;27.54;100904.71;108181;1254;72098;-63
2023/05/02 01:05:02;;;;;;;21.00;8.80;;;;;;;17.78;27.68;100904.63;108196;1254;74769;-63
2023/05/02 01:07:45;;;;;;;;;;;;;;;17.79;27.60;100904.23;108226;1254;62892;-64
2023/05/02 01:10:44;;;;;;;17.80;7.50;;;;;;;17.85;27.55;100907.30;108234;1255;61278;-64
2023/05/02 01:13:13;;;;;;;13.50;6.80;;;;;;;17.80;27.64;100913.24;108136;1252;75585;-65
2023/05/02 01:15:40;;;;;;;16.90;7.70;;;;;;;17.90;27.58;100913.05;108113;1258;72933;-63
2023/05/02 01:18:11;;;;;;;17.30;7.00;;;;;;;17.84;27.68;100914.78;108094;1254;73740;-64
2023/05/02 01:20:40;;;;;;;15.10;7.30;;;;;;;17.68;27.81;100914.40;108288;1254;60451;-62
2023/05/02 01:23:25;;;;;;;17.80;7.90;;;;;;;17.72;27.68;100917.41;108182;1253;62361;-65
2023/05/02 01:25:59;;;;;;;16.50;7.40;;;;;;;17.76;27.57;100918.55;108187;1256;74588;-65
2023/05/02 01:28:54;;;;;;;17.00;7.20;;;;;;;17.69;27.67;100917.20;108081;1259;72971;-64
2023/05/02 01:31:23;;;;;;;16.20;7.30;;;;;;;17.63;27.68;100920.18;108016;1253;73902;-65
2023/05/02 01:33:50;;;;;;;17.80;7.40;;;;;;;17.46;27.75;100918.42;108209;1251;61329;-66
2023/05/02 01:36:17;;;;;;;17.30;7.30;;;;;;;17.41;27.78;100924.19;108079;1254;61237;-65
2023/05/02 01:38:44;;;;;;;18.40;7.90;;;;;;;17.30;28.01;100921.57;108081;1255;76196;-65
2023/05/02 01:41:11;;;;;;;18.00;7.50;;;;;;;17.29;28.03;100925.19;108058;1257;69996;-66
2023/05/02 01:43:38;;;;;;;20.80;8.60;;;;;;;17.11;28.13;100929.67;108226;1254;72502;-63
2023/05/02 01:46:06;;;;;;;20.70;8.70;;;;;;;17.22;28.09;100929.27;108036;1251;60703;-64
2023/05/02 01:48:33;;;;;;;15.70;7.10;;;;;;;17.22;28.26;100932.66;107973;1254;61003;-65
2023/05/02 01:51:00;;;;;;;16.90;7.40;;;;;;;17.23;28.23;100932.94;108037;1254;76044;-65
2023/05/02 01:53:27;;;;;;;17.90;8.00;;;;;;;17.43;27.96;100933.13;108174;1257;72628;-65
2023/05/02 01:55:55;;;;;;;16.40;7.20;;;;;;;17.23;28.06;100932.79;108115;1254;73350;-65
2023/05/02 01:58:23;;;;;;;15.50;6.90;;;;;;;17.22;28.12;100934.41;108117;1254;60782;-65
2023/05/02 02:00:50;;;;;;;16.00;6.90;;;;;;;17.28;28.03;100935.73;107950;1259;62395;-64
2023/05/02 02:03:17;;;;;;;13.10;6.30;;;;;;;17.28;27.98;100938.17;107974;1259;75525;-65
2023/05/02 02:05:44;;;;;;;15.20;7.30;;;;;;;17.39;27.75;100936.35;107942;1255;72106;-65
2023/05/02 02:08:10;;;;;;;14.40;7.10;;;;;;;17.10;28.01;100937.67;108076;1254;73694;-65
2023/05/02 02:10:43;;;;;;;15.50;7.20;;;;;;;16.98;28.14;100936.86;108039;1253;63594;-64
2023/05/02 02:13:31;;;;;;;13.80;6.70;;;;;;;17.01;28.18;100936.77;107966;1254;60924;-65
2023/05/02 02:16:00;;;;;;;19.10;6.70;;;;;;;16.92;28.27;100938.05;108091;1258;76241;-65
2023/05/02 02:18:28;;;;;;;16.80;6.60;;;;;;;16.86;28.31;100939.59;108082;1253;71932;-67
2023/05/02 02:20:56;;;;;;;17.90;6.90;;;;;;;16.85;28.27;100941.77;108016;1254;73996;-65
2023/05/02 02:23:25;;;;;;;19.10;7.30;;;;;;;16.93;28.19;100937.48;107960;1253;63608;-66
2023/05/02 02:25:52;;;;;;;16.70;7.10;;;;;;;16.87;28.20;100942.23;108032;1254;62368;-67
2023/05/02 02:28:19;;;;;;;15.40;6.80;;;;;;;16.69;28.42;100937.77;108033;1254;72548;-66
2023/05/02 02:30:47;;;;;;;12.90;6.30;;;;;;;16.68;28.51;100937.13;108151;1256;72002;-65
2023/05/02 02:33:13;;;;;;;14.80;6.50;;;;;;;16.65;28.54;100936.73;108082;1254;73383;-66
2023/05/02 02:35:42;;;;;;;16.60;7.30;;;;;;;16.63;28.83;100940.76;108071;1254;61916;-62
2023/05/02 02:38:28;;;;;;;15.70;7.10;;;;;;;16.60;28.80;100941.04;108070;1254;60569;-65
2023/05/02 02:40:56;;;;;;;12.30;6.30;;;;;;;16.66;28.79;100945.72;108125;1254;71779;-65
2023/05/02 02:43:31;;;;;;;15.80;6.80;;;;;;;16.59;28.90;100946.06;108102;1257;72084;-65
2023/05/02 02:46:01;;;;;;;18.10;7.10;;;;;;;16.74;28.75;100941.27;108062;1257;71465;-63
2023/05/02 02:48:33;;;;;;;14.60;7.00;;;;;;;16.86;28.64;100945.16;108053;1253;63777;-64
2023/05/02 02:51:01;;;;;;;14.30;6.50;;;;;;;16.83;28.61;100946.86;108057;1254;62488;-65
2023/05/02 02:53:51;;;;;;;13.70;6.90;;;;;;;16.94;28.50;100953.58;108043;1253;75061;-67
2023/05/02 02:56:21;;;;;;;13.40;6.00;;;;;;;16.96;28.48;100955.63;108093;1257;70555;-65
2023/05/02 02:58:59;;;;;;;15.30;6.90;;;;;;;17.00;28.48;100959.83;108037;1257;73869;-65
2023/05/02 03:01:26;;;;;;;13.80;6.20;;;;;;;17.05;28.52;100956.59;108102;1253;61443;-64
2023/05/02 03:03:53;;;;;;;15.60;6.80;;;;;;;17.12;28.45;100958.37;108191;1254;62514;-65
2023/05/02 03:06:20;;;;;;;15.10;6.70;;;;;;;17.05;28.62;100956.27;108124;1254;75388;-66
2023/05/02 03:08:49;;;;;;;14.60;6.20;;;;;;;17.23;28.55;100960.99;107997;1254;69096;-65
2023/05/02 03:11:16;;;;;;;17.50;5.90;;;;;;;17.51;28.44;100964.48;108152;1253;74765;-66
2023/05/02 03:13:43;;;;;;;12.20;5.70;;;;;;;17.38;28.75;100967.48;108056;1253;62304;-64
2023/05/02 03:16:28;;;;;;;17.90;6.10;;;;;;;17.83;28.56;100970.64;108202;1254;60326;-66
2023/05/02 03:18:55;;;;;;;18.50;6.60;;;;;;;18.12;28.64;100969.38;108212;1255;75901;-67
2023/05/02 03:21:22;;;;;;;12.90;5.40;;;;;;;18.84;27.98;100967.98;108066;1254;70753;-66
2023/05/02 03:23:49;;;;;;;18.00;5.80;;;;;;;19.80;27.15;100966.52;108136;1254;74896;-66
2023/05/02 03:26:16;;;;;;;21.10;6.30;;;;;;;20.28;26.72;100966.73;108338;1253;62067;-65
2023/05/02 03:28:46;;;;;;;15.40;6.00;;;;;;;20.68;26.19;100970.05;108074;1254;61060;-66
2023/05/02 03:31:14;;;;;;;21.10;5.60;;;;;;;21.25;25.69;100973.92;108196;1254;75427;-66
2023/05/02 03:33:41;;;;;;;12.20;6.40;;;;;;;21.80;25.13;100976.58;108057;1254;72217;-67
2023/05/02 03:36:08;;;;;;;17.40;6.10;;;;;;;22.76;24.04;100980.02;108082;1255;74005;-66
2023/05/02 03:38:36;;;;;;;14.00;5.20;;;;;;;23.50;23.58;100980.80;108094;1253;61636;-67
2023/05/02 03:41:03;;;;;;;13.20;5.10;;;;;;;24.00;23.10;100983.75;108179;1254;62162;-67
2023/05/02 03:43:30;;;;;;;16.50;5.10;;;;;;;24.31;22.70;100987.21;108136;1254;73698;-67
2023/05/02 03:46:03;;;;;;;12.80;5.30;;;;;;;24.70;22.46;100987.05;108113;1254;72627;-67
2023/05/02 03:48:30;;;;;;;14.90;5.90;;;;;;;25.37;21.62;100997.98;108066;1257;75157;-66
2023/05/02 03:50:57;;;;;;;10.90;4.90;;;;;;;25.93;21.31;100993.89;108155;1254;62615;-68
2023/05/02 03:53:24;;;;;;;10.40;5.50;;;;;;;26.47;20.91;100994.63;108125;1254;60313;-68
2023/05/02 03:55:53;;;;;;;12.20;5.10;;;;;;;26.78;20.54;100996.58;108054;1255;75650;-67
2023/05/02 03:58:24;;;;;;;14.00;5.00;;;;;;;27.16;20.03;101001.35;108220;1257;72755;-66
2023/05/02 04:00:54;;;;;;;9.20;5.00;;;;;;;27.59;19.70;101000.55;108055;1254;72586;-67
2023/05/02 04:03:21;;;;;;;9.40;5.10;;;;;;;27.99;19.53;101001.23;108171;1255;62635;-68
2023/05/02 04:05:50;;;;;;;10.70;4.60;;;;;;;28.24;18.31;101005.61;108191;1253;60180;-67
2023/05/02 04:08:17;;;;;;;11.90;4.70;;;;;;;28.47;17.61;101002.85;108157;1254;76130;-68
2023/05/02 04:10:45;;;;;;;12.80;4.90;;;;;;;28.85;17.00;101006.86;108296;1254;71106;-67
2023/05/02 04:13:12;;;;;;;7.60;4.00;;;;;;;29.17;16.18;101005.48;108168;1254;73284;-67
2023/05/02 04:15:44;;;;;;;9.20;3.80;;;;;;;28.96;14.66;101005.58;108095;1253;62820;-67
2023/05/02 04:18:11;;;;;;;7.70;3.80;;;;;;;28.97;15.07;101006.39;108059;1257;62008;-68
2023/05/02 04:20:38;;;;;;;10.40;3.70;;;;;;;29.05;15.25;101013.13;108202;1254;75481;-68
2023/05/02 04:23:05;;;;;;;7.20;3.80;;;;;;;29.47;15.12;101010.88;108138;1257;72710;-67
2023/05/02 04:25:32;;;;;;;8.00;3.80;;;;;;;29.60;14.87;101014.02;108128;1254;73758;-68
2023/05/02 04:28:01;;;;;;;12.10;4.20;;;;;;;30.01;14.57;101010.41;108164;1254;60323;-69
2023/05/02 04:30:28;;;;;;;8.10;3.30;;;;;;;30.72;13.88;101015.48;108201;1254;62478;-69
2023/05/02 04:33:01;;;;;;;10.80;3.80;;;;;;;31.07;13.60;101013.62;108082;1254;74897;-69
2023/05/02 04:35:31;;;;;;;10.60;4.10;;;;;;;31.37;13.57;101018.44;108202;1254;72719;-68
2023/05/02 04:37:58;;;;;;;10.30;4.20;;;;;;;31.25;12.85;101016.77;108201;1254;74611;-67
2023/05/02 04:40:26;;;;;;;14.70;4.30;;;;;;;31.17;13.05;101019.58;108240;1254;62172;-69
2023/05/02 04:42:59;;;;;;;6.30;3.50;;;;;;;30.98;12.81;101026.66;108204;1253;60325;-69
2023/05/02 04:45:35;;;;;;;7.60;3.60;;;;;;;31.08;13.31;101022.96;108173;1254;74899;-67
2023/05/02 04:48:05;;;;;;;7.30;3.40;;;;;;;31.14;12.74;101031.73;108187;1254;72285;-67
2023/05/02 04:50:32;;;;;;;9.80;3.30;;;;;;;31.13;13.07;101029.33;108201;1257;73261;-68
2023/05/02 04:52:59;;;;;;;8.60;3.40;;;;;;;31.37;12.88;101027.19;108127;1254;61262;-67
2023/05/02 04:55:26;;;;;;;7.80;3.40;;;;;;;31.06;12.73;101032.30;108203;1253;60453;-66
2023/05/02 04:57:53;;;;;;;6.30;3.20;;;;;;;30.97;13.04;101029.38;108160;1254;76029;-70
2023/05/02 05:00:20;;;;;;;4.90;2.70;;;;;;;30.99;13.00;101032.99;108096;1254;71347;-69
2023/05/02 05:02:47;;;;;;;15.40;3.90;;;;;;;30.94;13.25;101035.77;108279;1253;72493;-70
2023/05/02 05:05:15;;;;;;;8.10;3.80;;;;;;;30.89;13.17;101038.77;108333;1254;62092;-69
2023/05/02 05:07:42;;;;;;;7.70;3.80;;;;;;;30.87;13.04;101041.20;108246;1254;62751;-68
2023/05/02 05:10:10;;;;;;;10.90;3.60;;;;;;;31.39;13.41;101040.23;108189;1254;73488;-67
2023/05/02 05:12:43;;;;;;;7.80;3.10;;;;;;;31.67;12.77;101042.10;108235;1253;72506;-68
2023/05/02 05:15:10;;;;;;;5.90;2.70;;;;;;;31.57;12.70;101043.16;108105;1253;74616;-67
2023/05/02 05:17:39;;;;;;;9.70;3.00;;;;;;;31.54;12.87;101039.45;108206;1257;60469;-68
2023/05/02 05:20:08;;;;;;;8.90;2.90;;;;;;;31.14;12.88;101044.73;108111;1252;61636;-66
2023/05/02 05:22:40;;;;;;;7.70;2.80;;;;;;;30.39;12.99;101047.80;108173;1251;74455;-67
2023/05/02 05:25:08;;;;;;;4.20;2.60;;;;;;;29.82;13.65;101049.47;108137;1253;70272;-66
2023/05/02 05:27:36;;;;;;;8.80;3.40;;;;;;;29.98;13.62;101054.09;108200;1256;74715;-68
2023/05/02 05:30:05;;;;;;;8.10;3.10;;;;;;;30.30;13.54;101056.25;108074;1254;61743;-68
2023/05/02 05:32:32;;;;;;;14.40;3.10;;;;;;;30.45;13.47;101052.61;108338;1254;61743;-68
2023/05/02 05:34:59;;;;;;;10.40;3.60;;;;;;;30.42;13.58;101051.07;108167;1256;75523;-67
2023/05/02 05:37:27;;;;;;;6.40;2.80;;;;;;;30.73;13.67;101054.37;108185;1254;70641;-67
2023/05/02 05:39:55;;;;;;;11.30;3.30;;;;;;;31.09;13.37;101045.89;108163;1254;72782;-68
2023/05/02 05:42:22;;;;;;;5.50;3.00;;;;;;;31.10;13.27;101045.96;108219;1254;60452;-66
2023/05/02 05:44:52;;;;;;;10.90;2.80;;;;;;;30.26;13.48;101051.88;108148;1253;60678;-68
2023/05/02 05:47:22;;;;;;;8.10;3.10;;;;;;;30.02;13.66;101054.05;108203;1254;76141;-68
2023/05/02 05:49:54;;;;;;;;;;;;;;;30.16;13.74;101051.68;108209;1253;71648;-67
2023/05/02 05:52:23;;;;;;;14.90;3.30;;;;;;;30.48;13.68;101049.56;108102;1254;73498;-66
2023/05/02 05:54:57;;;;;;;5.50;2.80;;;;;;;31.14;13.28;101048.97;108173;1254;61112;-68
2023/05/02 05:57:26;;;;;;;10.60;2.80;;;;;;;31.67;13.12;101044.95;108222;1253;61280;-68
2023/05/02 05:59:54;;;;;;;5.20;2.90;;;;;;;32.17;12.50;101045.63;108181;1254;74686;-66
2023/05/02 06:02:22;;;;;;;5.00;2.80;;;;;;;32.64;12.04;101041.89;108145;1254;70981;-69
2023/05/02 06:04:49;;;;;;;7.50;2.90;;;;;;;32.65;12.31;101040.11;108069;1259;73561;-69
2023/05/02 06:07:19;;;;;;;8.80;3.30;;;;;;;32.79;12.24;101042.24;108233;1254;62419;-68
2023/05/02 06:09:46;;;;;;;10.20;3.50;;;;;;;32.98;12.15;101041.38;108218;1254;61278;-67
2023/05/02 06:12:15;;;;;;;9.40;3.80;;;;;;;33.12;12.06;101044.92;108270;1252;73844;-65
2023/05/02 06:14:42;;;;;;;7.80;3.10;;;;;;;33.50;12.28;101043.88;108260;1253;72338;-68
2023/05/02 06:17:09;;;;;;;16.20;3.10;;;;;;;33.72;11.98;101044.52;108107;1259;74599;-68
2023/05/02 06:19:36;;;;;;;18.80;3.40;;;;;;;33.68;11.71;101044.27;108111;1253;62804;-68
2023/05/02 06:22:03;;;;;;;9.20;2.70;;;;;;;33.44;11.89;101048.77;108105;1253;60310;-68
2023/05/02 06:24:30;;;;;;;5.90;2.40;;;;;;;33.40;11.91;101045.63;108146;1254;76154;-68
2023/05/02 06:26:57;;;;;;;10.10;2.50;;;;;;;33.65;11.89;101046.98;108232;1254;68792;-66
2023/05/02 06:29:24;;;;;;;8.80;2.50;;;;;;;33.65;11.65;101047.77;108151;1254;74658;-66
2023/05/02 06:31:54;;;;;;;5.00;2.70;;;;;;;33.61;11.71;101044.81;108200;1254;62168;-67
2023/05/02 06:34:21;;;;;;;4.20;2.30;;;;;;;33.68;11.49;101047.04;108196;1254;62608;-66
2023/05/02 06:36:48;;;;;;;9.60;2.80;;;;;;;33.73;11.55;101048.28;108220;1254;74689;-69
2023/05/02 06:39:15;;;;;;;5.90;2.30;;;;;;;33.94;11.48;101050.27;108137;1254;72382;-67
2023/05/02 06:41:42;;;;;;;4.80;2.50;;;;;;;34.24;11.44;101054.06;108159;1253;74478;-69
2023/05/02 06:44:14;;;;;;;8.40;2.30;;;;;;;34.01;11.11;101054.09;108187;1254;61086;-68
2023/05/02 06:46:41;;;;;;;4.60;2.50;;;;;;;34.14;11.19;101052.98;108081;1253;62736;-68
2023/05/02 06:49:08;;;;;;;5.80;2.40;;;;;;;33.95;10.93;101052.48;108079;1254;76181;-68
2023/05/02 06:51:35;;;;;;;10.10;3.00;;;;;;;33.81;11.38;101051.64;108149;1256;72417;-69
2023/05/02 06:54:02;;;;;;;4.70;2.00;;;;;;;33.66;11.33;101055.31;108135;1253;72311;-65
2023/05/02 06:56:29;;;;;;;4.40;2.00;;;;;;;33.98;11.24;101054.70;108105;1254;61100;-68
2023/05/02 06:58:55;;;;;;;14.00;2.40;;;;;;;34.27;11.12;101054.30;108190;1254;61272;-68
2023/05/02 07:01:22;;;;;;;6.10;2.20;;;;;;;34.43;11.18;101055.60;108186;1254;75056;-68
2023/05/02 07:03:49;;;;;;;8.00;2.00;;;;;;;34.03;10.97;101056.73;108203;1254;71673;-69
2023/05/02 07:06:16;;;;;;;2.60;1.70;;;;;;;33.76;11.29;101053.41;108134;1253;73665;-69
2023/05/02 07:08:43;;;;;;;8.20;2.20;;;;;;;33.04;11.23;101061.05;108161;1254;60994;-68
2023/05/02 07:11:10;;;;;;;7.70;2.70;;;;;;;32.64;11.57;101056.40;108172;1253;60605;-69
2023/05/02 07:13:36;;;;;;;7.40;2.10;;;;;;;32.53;12.18;101056.48;108215;1253;76256;-70
2023/05/02 07:16:04;;;;;;;4.50;1.90;;;;;;;32.83;11.69;101054.89;108180;1253;72151;-68
2023/05/02 07:18:31;;;;;;;9.20;2.30;;;;;;;32.48;11.77;101048.13;107846;1254;74095;-68
2023/05/02 07:20:58;;;;;;;4.60;2.00;;;;;;;32.87;11.92;101051.04;108142;1253;60528;-68
2023/05/02 07:23:26;;;;;;;7.70;2.00;;;;;;;32.74;11.47;101058.40;108137;1254;62358;-67
2023/05/02 07:25:53;;;;;;;7.30;2.40;;;;;;;33.42;11.43;101051.45;108121;1253;73933;-69
2023/05/02 07:28:20;;;;;;;6.60;2.10;;;;;;;33.45;11.45;101052.73;108033;1253;72047;-67
2023/05/02 07:30:46;;;;;;;10.20;2.10;;;;;;;33.93;11.11;101051.86;108045;1254;74686;-67
2023/05/02 07:33:13;;;;;;;6.90;2.20;;;;;;;34.41;11.00;101053.23;108089;1254;60661;-68
2023/05/02 07:35:41;;;;;;;9.40;2.40;;;;;;;34.26;11.03;101056.43;108157;1253;60421;-69
2023/05/02 07:38:08;;;;;;;8.20;1.40;;;;;;;34.07;10.89;101060.17;108079;1254;74641;-69
2023/05/02 07:40:34;;;;;;;6.80;2.00;;;;;;;33.13;11.17;101058.67;108166;1253;71704;-68
2023/05/02 07:43:01;;;;;;;6.10;1.80;;;;;;;33.62;11.22;101056.35;108168;1256;74902;-67
2023/05/02 07:45:28;;;;;;;8.30;2.10;;;;;;;33.79;10.77;101053.71;108130;1254;62620;-68
2023/05/02 07:47:55;;;;;;;4.40;1.70;;;;;;;33.23;11.21;101053.13;108088;1254;61091;-69
2023/05/02 07:50:22;;;;;;;8.80;1.80;;;;;;;33.30;11.32;101054.91;108127;1253;72539;-68
2023/05/02 07:52:49;;;;;;;4.70;1.70;;;;;;;33.92;10.84;101055.98;108149;1253;70301;-68
2023/05/02 07:55:16;;;;;;;4.50;1.80;;;;;;;34.22;10.85;101057.92;108116;1254;73756;-69
2023/05/02 07:57:43;;;;;;;4.50;1.80;;;;;;;34.64;10.72;101058.06;108156;1253;60444;-68
2023/05/02 08:00:10;;;;;;;9.40;2.00;;;;;;;34.32;10.35;101057.30;108252;1254;60315;-69
2023/05/02 08:02:41;;;;;;;5.50;1.50;;;;;;;34.18;10.39;101060.98;108258;1256;75093;-69
2023/05/02 08:05:08;;;;;;;7.60;1.90;;;;;;;33.80;10.62;101055.07;108234;1254;72439;-70
2023/05/02 08:07:36;;;;;;;5.80;1.60;;;;;;;33.92;10.60;101052.44;108205;1253;73634;-68
2023/05/02 08:10:04;;;;;;;3.00;1.20;;;;;;;33.90;10.59;101054.24;108270;1253;60315;-69
2023/05/02 08:12:31;;;;;;;10.40;1.80;;;;;;;33.57;10.56;101047.88;108320;1252;60223;-68
2023/05/02 08:15:00;;;;;;;9.20;1.50;;;;;;;34.13;10.39;101051.05;108290;1253;76012;-68
2023/05/02 08:17:27;;;;;;;3.20;1.20;;;;;;;34.38;10.07;101050.27;108188;1254;69693;-68
2023/05/02 08:19:55;;;;;;;2.20;1.40;;;;;;;34.65;10.21;101047.52;108296;1253;66296;-68
2023/05/02 08:22:22;;;;;;;4.60;1.20;;;;;;;34.93;10.09;101041.09;108326;1254;60552;-68
2023/05/02 08:24:49;;;;;;;4.00;1.70;;;;;;;34.88;9.99;101040.23;108222;1253;61745;-67
2023/05/02 08:27:16;;;;;;;3.00;1.60;;;;;;;35.15;9.83;101027.30;108170;1253;67182;-67
2023/05/02 08:29:42;;;;;;;7.70;1.50;;;;;;;35.25;9.93;101030.08;108106;1255;62565;-67
2023/05/02 08:32:09;;;;;;;4.30;1.60;;;;;;;34.33;10.14;101036.67;108268;1256;71674;-68
2023/05/02 08:34:36;;;;;;;5.10;1.70;;;;;;;34.44;10.34;101039.02;108285;1254;62251;-69
2023/05/02 08:37:09;;;;;;;7.80;1.60;;;;;;;34.42;10.27;101036.83;108258;1253;61399;-68
2023/05/02 08:39:38;;;;;;;4.10;1.70;;;;;;;34.93;10.11;101035.62;108267;1254;67526;-69
2023/05/02 08:42:06;;;;;;;3.80;1.40;;;;;;;35.09;9.99;101033.56;108149;1254;63482;-70
2023/05/02 08:44:33;;;;;;;8.80;1.30;;;;;;;35.26;9.90;101030.85;108276;1253;66118;-69
2023/05/02 08:47:00;;;;;;;7.00;1.50;;;;;;;35.00;9.83;101027.41;108009;1253;174958;-67
2023/05/02 08:50:13;;;;;;;3.20;1.50;;;;;;;32.37;11.48;101027.95;104917;1289;600364;-69
2023/05/02 08:52:40;;;;;;;6.10;1.60;;;;;;;33.93;10.35;101022.11;107262;1269;59241;-67
2023/05/02 08:55:07;;;;;;;5.80;1.40;;;;;;;34.43;10.29;101016.31;107240;1267;59161;-66
2023/05/02 08:57:34;;;;;;;5.20;1.40;;;;;;;34.46;10.28;101023.42;107344;1267;74348;-67
2023/05/02 09:00:01;;;;;;;7.50;1.80;;;;;;;34.37;10.19;101021.88;107406;1267;72164;-69
2023/05/02 09:02:38;;;;;;;2.60;1.40;;;;;;;34.57;10.12;101017.38;107373;1265;66499;-67
2023/05/02 09:05:06;;;;;;;4.30;1.50;;;;;;;34.39;10.31;101013.77;107262;1267;214435;-69
2023/05/02 09:07:45;;;;;;;4.70;1.40;;;;;;;34.50;10.34;101004.84;107306;1264;61580;-68
2023/05/02 09:10:12;;;;;;;5.90;2.00;;;;;;;33.39;10.90;101002.85;107392;1264;74097;-68
2023/05/02 09:12:39;;;;;;;6.80;1.60;;;;;;;33.13;10.87;101003.73;107388;1264;71756;-68
2023/05/02 09:15:14;;;;;;;7.10;1.60;;;;;;;33.47;10.80;100998.76;107773;1257;73333;-69
2023/05/02 09:17:46;;;;;;;4.40;1.40;;;;;;;34.25;10.74;100995.92;107825;1257;63043;-69
2023/05/02 09:20:14;;;;;;;8.50;2.00;;;;;;;34.88;10.20;100989.95;107800;1257;59573;-68
2023/05/02 09:22:51;;;;;;;6.30;1.90;;;;;;;35.17;10.06;100987.73;108124;1254;65282;-68
2023/05/02 09:25:21;;;;;;;2.90;1.50;;;;;;;35.52;9.82;100984.77;108088;1254;62524;-68
2023/05/02 09:27:52;;;;;;;2.50;1.30;;;;;;;35.83;9.87;100982.03;107989;1254;64970;-69
2023/05/02 09:30:23;;;;;;;8.20;1.90;;;;;;;35.66;9.90;100977.67;108126;1254;59649;-70
2023/05/02 09:32:51;;;;;;;29.30;15.50;;;;;;;35.45;9.85;100969.68;108208;1254;59545;-68
2023/05/02 09:35:22;;;;;;;3.90;2.20;;;;;;;35.81;9.68;100970.55;108035;1253;66228;-68
2023/05/02 09:37:51;;;;;;;4.70;1.60;;;;;;;36.16;9.77;100967.79;108043;1254;63635;-69
2023/05/02 09:40:19;;;;;;;5.00;1.70;;;;;;;36.03;9.98;100965.77;108105;1254;64725;-70
2023/05/02 09:42:46;;;;;;;6.50;1.60;;;;;;;35.89;9.67;100972.06;108228;1253;59499;-68
2023/05/02 09:45:20;;;;;;;3.10;1.20;;;;;;;35.95;9.59;100965.10;108107;1254;59531;-69
2023/05/02 09:47:48;;;;;;;3.80;1.50;;;;;;;35.38;10.06;100961.76;108160;1253;65239;-69
2023/05/02 09:50:35;;;;;;;4.60;1.50;;;;;;;35.13;10.17;100953.91;108090;1253;63755;-68
2023/05/02 09:53:06;;;;;;;6.20;1.70;;;;;;;35.07;10.12;100957.52;108137;1253;66015;-69
2023/05/02 09:55:33;;;;;;;6.30;1.50;;;;;;;34.85;10.04;100955.89;108165;1254;59504;-70
2023/05/02 09:58:00;;;;;;;3.00;1.60;;;;;;;34.96;10.21;100956.98;108170;1252;61543;-69
2023/05/02 10:00:40;;;;;;;7.40;1.70;;;;;;;35.21;10.11;100952.50;108237;1254;66637;-69
2023/05/02 10:03:07;;;;;;;3.30;1.30;;;;;;;35.83;9.84;100951.70;108212;1253;62491;-68
2023/05/02 10:05:38;;;;;;;6.20;1.70;;;;;;;36.04;9.99;100954.26;108125;1254;66349;-67
2023/05/02 10:08:05;;;;;;;6.70;1.80;;;;;;;36.30;9.84;100958.13;108246;1254;59489;-69
2023/05/02 10:10:34;;;;;;;6.50;1.90;;;;;;;36.54;9.75;100953.95;108066;1253;59497;-70
2023/05/02 10:13:02;;;;;;;3.20;1.40;;;;;;;36.13;9.63;100965.10;108051;1254;65360;-70
2023/05/02 10:15:33;;;;;;;7.80;1.60;;;;;;;35.74;9.75;100960.04;108221;1254;62459;-67
2023/05/02 10:18:01;;;;;;;;;;;;;;;35.71;10.02;100956.16;108238;1257;65053;-67
2023/05/02 10:20:34;;;;;;;4.40;2.10;;;;;;;36.08;9.73;100944.80;108091;1257;59011;-68
2023/05/02 10:23:01;;;;;;;2.70;1.70;;;;;;;37.12;9.45;100947.46;108069;1254;59731;-67
2023/05/02 10:25:28;;;;;;;7.10;1.80;;;;;;;36.65;9.60;100942.52;108170;1254;66402;-70
2023/05/02 10:27:57;;;;;;;4.20;1.80;;;;;;;35.64;10.30;100938.35;107942;1260;63568;-69
2023/05/02 10:30:24;;;;;;;3.40;1.60;;;;;;;35.54;10.42;100940.37;108237;1253;65188;-66
2023/05/02 10:32:53;;;;;;;3.80;1.80;;;;;;;35.95;10.13;100937.50;108309;1253;59845;-69
2023/05/02 10:35:20;;;;;;;5.70;1.90;;;;;;;36.45;10.13;100935.56;108200;1254;59516;-69
2023/05/02 10:37:47;;;;;;;6.20;1.80;;;;;;;36.20;10.11;100937.35;107997;1253;66479;-70
2023/05/02 10:40:14;;;;;;;7.40;2.20;;;;;;;36.05;9.92;100934.23;108072;1253;62647;-68
2023/05/02 10:42:44;;;;;;;2.60;1.60;;;;;;;35.81;10.15;100931.93;108024;1254;65772;-69
2023/05/02 10:45:30;;;;;;;8.40;1.50;;;;;;;35.23;10.35;100933.55;108098;1253;59824;-69
2023/05/02 10:48:15;;;;;;;5.30;1.50;;;;;;;34.80;10.31;100933.25;107864;1253;59024;-68
2023/05/02 10:50:45;;;;;;;4.90;1.60;;;;;;;35.01;10.35;100934.56;108074;1253;65806;-68
2023/05/02 10:53:38;;;;;;;4.30;1.90;;;;;;;35.41;10.51;100927.27;108051;1254;63159;-68
2023/05/02 10:56:08;;;;;;;4.20;1.50;;;;;;;35.87;10.23;100928.77;108111;1253;64787;-68
2023/05/02 10:58:35;;;;;;;3.10;1.60;;;;;;;35.67;10.23;100935.79;108079;1254;59663;-68
2023/05/02 11:01:25;;;;;;;9.30;1.60;;;;;;;34.96;10.39;100933.61;108066;1253;59518;-68
2023/05/02 11:04:05;;;;;;;3.20;1.60;;;;;;;35.36;10.24;100924.94;108061;1253;73914;-69
2023/05/02 11:06:56;;;;;;;5.60;1.30;;;;;;;36.07;10.28;100920.64;108151;1253;61925;-69
2023/05/02 11:09:23;;;;;;;3.80;1.40;;;;;;;36.68;9.96;100915.89;108053;1254;66182;-67
2023/05/02 11:11:51;;;;;;;5.30;1.70;;;;;;;36.50;9.67;100912.55;108101;1253;59641;-68
2023/05/02 11:14:24;;;;;;;5.70;1.50;;;;;;;36.30;9.91;100906.32;108100;1253;62298;-69
2023/05/02 11:16:57;;;;;;;4.70;1.70;;;;;;;35.94;9.78;100909.00;108086;1253;66620;-68
2023/05/02 11:19:28;;;;;;;10.30;1.90;;;;;;;36.66;9.59;100905.02;108139;1254;63717;-70
2023/05/02 11:22:25;;;;;;;5.00;1.50;;;;;;;36.56;9.65;100910.36;108076;1253;65863;-68
2023/05/02 11:24:53;;;;;;;8.90;1.80;;;;;;;36.11;9.79;100910.36;108114;1254;59521;-68